Main page
METAR-TAF:

METAR-TAF

Airports :

Alderney Airport

Alderney,

latitude: 49-43N, longitude: 002-12W, elevation: 71 m

Current weather observation

The report was made 44 minutes ago, at 08:20 UTC
Wind 19 kt from the West/Northwest with gusts up to 29 kt
Temperature 14°C
Humidity 63%
Pressure 1013 hPa
Visibility 10 km or more
Scattered clouds at a height of 3000 ft

METAR: EGJA 210820Z 29019G29KT 9999 SCT030 14/07 Q1013

Time: 10:04 (09:04 UTC)

Forecast

The report was made 1 hour and 3 minutes ago, at 08:01 UTC
Forecast valid from 21 at 09 UTC to 21 at 18 UTC
Wind 20 kt from the West/Northwest with gusts up to 30 kt
Visibility 10 km or more
Few clouds at a height of 2500 ft
Probability 30% :
Temporary
from 21 at 09 UTC to 21 at 18 UTC
Visibility: 6000 m
rain showers

TAF: EGJA 210801Z 2109/2118 29020G30KT 9999 FEW025 PROB30 TEMPO 2109/2118 6000 SHRA

Weather observations and forecasts of more than 4000 airports (METAR and TAF reports).

The available stations are represented by yellow and red dots on the map.

Hover mouse over dot to see the name of the station.

Then click to see weather observations and forecasts.

To change the map : click on the green buttons with a black cross to zoom in, on the green button with a dash to zoom out, or on the green arrows for adjacent maps.


METAR-TAF: